Time;durP1;ratioP1;P1;durP2;ratioP2;P2;SDS_P1;SDS_P2;PMS_P1;PMS_P2;Temp;Humidity;BMP_temperature;BMP_pressure;BME280_temperature;BME280_humidity;BME280_pressure;Samples;Min_cycle;Max_cycle;Signal;HPM_P1;HPM_P2
2023/12/26 00:00:45;;;;;;;;;1.00;1.00;;;;;12.34;87.86;101348.16;5028326;28;45386;-77
2023/12/26 00:03:10;;;;;;;;;1.67;0.00;;;;;12.22;89.47;101324.00;5040779;28;45348;-78
2023/12/26 00:05:35;;;;;;;;;2.33;1.00;;;;;12.74;88.04;101397.59;5040375;28;45432;-79
2023/12/26 00:08:07;;;;;;;;;1.00;1.00;;;;;12.75;88.07;101401.13;5022368;28;45385;-78
2023/12/26 00:10:33;;;;;;;;;4.67;2.00;;;;;12.51;88.20;101368.63;5041152;28;45448;-78
2023/12/26 00:13:00;;;;;;;;;1.00;0.00;;;;;12.72;87.55;101388.00;5040795;28;45602;-78
2023/12/26 00:15:27;;;;;;;;;2.00;1.00;;;;;12.70;87.34;101398.66;5022762;28;46666;-78
2023/12/26 00:17:52;;;;;;;;;2.33;1.00;;;;;12.70;87.99;101395.16;5040461;28;45366;-78
2023/12/26 00:20:18;;;;;;;;;3.00;1.33;;;;;12.49;87.85;101359.88;5040948;28;45354;-79
2023/12/26 00:22:46;;;;;;;;;2.33;1.33;;;;;12.65;87.40;101381.25;5040664;28;45262;-78
2023/12/26 00:25:11;;;;;;;;;2.00;0.00;;;;;12.69;88.24;101381.03;5059393;28;45440;-78
2023/12/26 00:27:38;;;;;;;;;4.67;1.00;;;;;12.70;87.45;101381.88;5044345;28;45259;-78
2023/12/26 00:30:04;;;;;;;;;2.00;0.33;;;;;12.70;88.12;101380.09;5035971;28;45428;-79
2023/12/26 00:32:30;;;;;;;;;1.00;1.00;;;;;12.70;87.18;101380.09;5038784;28;45481;-78
2023/12/26 00:34:57;;;;;;;;;1.33;1.33;;;;;12.71;87.32;101386.25;5040252;28;50835;-78
2023/12/26 00:37:22;;;;;;;;;1.67;0.67;;;;;12.60;87.94;101367.34;5038952;28;45306;-78
2023/12/26 00:39:47;;;;;;;;;3.00;3.00;;;;;12.68;88.09;101371.34;5024735;28;45298;-78
2023/12/26 00:42:13;;;;;;;;;2.00;2.00;;;;;12.52;88.74;101351.78;5021232;28;64472;-78
2023/12/26 00:44:38;;;;;;;;;2.33;1.00;;;;;12.63;88.62;101362.72;5039926;28;45853;-78
2023/12/26 00:47:03;;;;;;;;;3.00;1.00;;;;;12.60;88.72;101357.56;5040087;28;45290;-78
2023/12/26 00:49:29;;;;;;;;;1.00;1.00;;;;;12.60;86.89;101354.91;5040583;28;45314;-78
2023/12/26 00:51:54;;;;;;;;;4.33;2.00;;;;;12.54;87.51;101347.25;5040083;28;47606;-78
2023/12/26 00:54:19;;;;;;;;;4.33;2.00;;;;;12.56;86.75;101377.25;5021496;28;64410;-78
2023/12/26 00:56:44;;;;;;;;;2.67;2.67;;;;;12.63;87.07;101373.34;5021855;28;57095;-78
2023/12/26 00:59:10;;;;;;;;;1.00;1.00;;;;;12.55;87.42;101367.53;5040393;28;45262;-79
2023/12/26 01:01:35;;;;;;;;;0.67;0.67;;;;;12.38;87.70;101338.28;5022024;28;45376;-78
2023/12/26 01:04:00;;;;;;;;;4.00;2.00;;;;;12.37;87.75;101344.50;5021149;28;45578;-79
2023/12/26 01:06:26;;;;;;;;;2.33;2.00;;;;;12.45;87.88;101360.94;5022060;28;48032;-78
2023/12/26 01:08:51;;;;;;;;;3.67;1.33;;;;;12.38;88.09;101359.50;5026590;28;45460;-78
2023/12/26 01:11:16;;;;;;;;;3.67;2.00;;;;;12.10;88.03;101313.94;5038756;28;45285;-78
2023/12/26 01:13:42;;;;;;;;;2.00;2.00;;;;;12.38;88.53;101346.22;5031406;28;47173;-79
2023/12/26 01:16:07;;;;;;;;;1.67;1.00;;;;;12.33;87.36;101334.97;5040178;28;45327;-79
2023/12/26 01:18:32;;;;;;;;;0.67;0.67;;;;;12.42;87.96;101350.47;5036388;28;45580;-78
2023/12/26 01:20:58;;;;;;;;;2.67;1.00;;;;;12.48;87.12;101351.03;5040286;28;45681;-79
2023/12/26 01:23:23;;;;;;;;;0.33;0.33;;;;;12.46;87.76;101354.72;5038484;28;46506;-79
2023/12/26 01:25:49;;;;;;;;;1.33;1.00;;;;;12.46;87.84;101358.22;5040027;28;45281;-79
2023/12/26 01:28:15;;;;;;;;;1.33;1.00;;;;;12.50;87.68;101358.91;5038588;28;45831;-78
2023/12/26 01:30:41;;;;;;;;;3.00;0.00;;;;;12.51;88.60;101358.00;5039972;28;45600;-78
2023/12/26 01:33:07;;;;;;;;;1.67;1.67;;;;;12.36;87.88;101332.19;5039215;28;45405;-79
2023/12/26 01:35:32;;;;;;;;;3.67;1.00;;;;;12.30;88.23;101338.63;5039710;28;45293;-79
2023/12/26 01:37:58;;;;;;;;;2.00;1.00;;;;;12.51;88.49;101358.88;5037530;28;45676;-78
2023/12/26 01:40:23;;;;;;;;;3.00;1.00;;;;;12.50;88.30;101364.22;5038097;28;45242;-78
2023/12/26 01:42:55;;;;;;;;;3.00;1.67;;;;;12.23;88.50;101321.28;5037984;28;45602;-78
2023/12/26 01:45:20;;;;;;;;;4.00;3.00;;;;;12.26;89.59;101325.59;5037881;28;45475;-79
2023/12/26 01:47:51;;;;;;;;;1.00;1.00;;;;;12.46;90.08;101358.22;5039208;28;45474;-78
2023/12/26 01:50:17;;;;;;;;;2.00;1.00;;;;;12.22;89.60;101308.94;5038058;28;45687;-78
2023/12/26 01:52:42;;;;;;;;;2.67;1.00;;;;;12.43;89.38;101349.56;5039237;28;46138;-79
2023/12/26 01:55:11;;;;;;;;;2.00;1.00;;;;;12.40;90.61;101344.38;5037925;28;45457;-78
2023/12/26 01:57:39;;;;;;;;;0.67;0.67;;;;;12.46;90.54;101363.53;5054928;28;45448;-78
2023/12/26 02:00:06;;;;;;;;;2.00;2.00;;;;;12.33;90.46;101342.94;5039195;28;45258;-78
2023/12/26 02:02:33;;;;;;;;;2.33;1.00;;;;;12.13;91.31;101316.47;5037417;28;48171;-78
2023/12/26 02:04:59;;;;;;;;;3.00;1.67;;;;;12.35;91.31;101341.94;5038038;28;46028;-78
2023/12/26 02:07:25;;;;;;;;;2.67;2.00;;;;;12.43;91.42;101366.28;5037867;28;45362;-78
2023/12/26 02:09:51;;;;;;;;;3.00;1.00;;;;;12.40;91.31;101362.97;5037713;28;45488;-78
2023/12/26 02:12:16;;;;;;;;;1.00;1.00;;;;;12.26;90.91;101344.16;5037543;28;45455;-78
2023/12/26 02:14:42;;;;;;;;;0.67;0.67;;;;;12.19;91.45;101355.97;5037804;28;45350;-78
2023/12/26 02:17:15;;;;;;;;;1.67;1.67;;;;;12.38;91.10;101376.28;5038869;28;45383;-78
2023/12/26 02:19:42;;;;;;;;;2.00;1.00;;;;;12.42;92.12;101380.50;5037596;28;45492;-78
2023/12/26 02:22:07;;;;;;;;;2.33;1.00;;;;;12.38;91.92;101378.94;5038888;28;46448;-79
2023/12/26 02:24:33;;;;;;;;;2.00;2.00;;;;;12.40;92.29;101379.72;5037502;28;46395;-78
2023/12/26 02:26:58;;;;;;;;;1.67;1.67;;;;;12.38;92.37;101384.22;5037670;28;45357;-77
2023/12/26 02:29:24;;;;;;;;;1.67;1.67;;;;;11.99;91.84;101335.63;5037662;28;45192;-79
2023/12/26 02:31:54;;;;;;;;;3.67;1.33;;;;;12.32;92.53;101386.31;5053845;28;46518;-79
2023/12/26 02:34:20;;;;;;;;;2.00;1.00;;;;;12.42;92.79;101396.44;5037427;28;45382;-79
2023/12/26 02:36:45;;;;;;;;;3.67;0.33;;;;;12.35;92.73;101394.13;5039004;28;45376;-78
2023/12/26 02:39:17;;;;;;;;;4.33;1.00;;;;;12.14;92.79;101357.97;5038649;28;45426;-78
2023/12/26 02:41:44;;;;;;;;;3.67;1.00;;;;;12.31;92.59;101366.88;5037136;28;46505;-79
2023/12/26 02:44:09;;;;;;;;;2.33;1.67;;;;;12.44;93.10;101391.91;5038629;28;45392;-79
2023/12/26 02:46:35;;;;;;;;;4.67;1.00;;;;;12.13;92.95;101332.38;5038627;28;45444;-79
2023/12/26 02:49:00;;;;;;;;;1.00;1.00;;;;;12.28;93.95;101377.63;5040603;28;45297;-79
2023/12/26 02:51:26;;;;;;;;;4.00;1.67;;;;;12.06;93.07;101321.19;5041869;28;60672;-79
2023/12/26 02:53:51;;;;;;;;;3.67;1.67;;;;;12.00;93.89;101309.06;5042139;28;45285;-79
2023/12/26 02:56:17;;;;;;;;;2.33;1.00;;;;;12.38;93.89;101367.44;5041778;28;45385;-78
2023/12/26 02:58:42;;;;;;;;;0.33;0.33;;;;;12.34;93.85;101357.91;5043493;28;45558;-79
2023/12/26 03:01:07;;;;;;;;;1.33;0.00;;;;;11.97;93.88;101300.41;5043370;28;46040;-78
2023/12/26 03:03:33;;;;;;;;;6.00;1.00;;;;;12.05;93.69;101311.50;5040750;28;45344;-79
2023/12/26 03:05:58;;;;;;;;;2.00;2.00;;;;;12.45;94.09;101382.16;5041274;28;45445;-78
2023/12/26 03:08:24;;;;;;;;;3.00;1.67;;;;;12.40;94.09;101376.22;5042084;28;45364;-79
2023/12/26 03:10:49;;;;;;;;;2.67;1.00;;;;;12.49;94.29;101391.72;5042049;28;46278;-79
2023/12/26 03:13:14;;;;;;;;;1.00;1.00;;;;;12.15;94.59;101335.81;5041914;28;45238;-79
2023/12/26 03:15:40;;;;;;;;;2.00;1.00;;;;;12.21;94.38;101357.59;5041804;28;45292;-79
2023/12/26 03:18:05;;;;;;;;;1.00;1.00;;;;;12.14;93.66;101320.84;5040671;28;45494;-79
2023/12/26 03:20:31;;;;;;;;;2.00;0.33;;;;;12.26;93.91;101344.16;5040396;28;47104;-79
2023/12/26 03:22:56;;;;;;;;;6.00;1.00;;;;;12.18;95.25;101349.78;5041439;28;45218;-79
2023/12/26 03:25:22;;;;;;;;;2.00;1.00;;;;;12.33;93.86;101348.25;5040556;28;45225;-79
2023/12/26 03:27:47;;;;;;;;;3.67;0.67;;;;;12.13;94.30;101325.28;5041792;28;45383;-79
2023/12/26 03:30:13;;;;;;;;;1.00;0.00;;;;;12.49;94.63;101394.38;5041847;28;45394;-79
2023/12/26 03:32:38;;;;;;;;;1.33;0.33;;;;;12.42;94.85;101399.09;5041352;28;45276;-79
2023/12/26 03:35:04;;;;;;;;;2.00;1.33;;;;;12.18;94.13;101338.31;5041854;28;45317;-79
2023/12/26 03:37:29;;;;;;;;;4.33;1.00;;;;;12.20;95.03;101352.38;5041686;28;45297;-79
2023/12/26 03:39:55;;;;;;;;;4.00;2.00;;;;;12.50;95.13;101382.78;5041145;28;45416;-79
2023/12/26 03:42:20;;;;;;;;;2.00;1.00;;;;;12.25;95.06;101339.75;5052941;28;45337;-79
2023/12/26 03:44:47;;;;;;;;;1.00;0.00;;;;;12.24;96.00;101343.34;5043581;28;45419;-79
2023/12/26 03:47:13;;;;;;;;;0.00;0.00;;;;;12.42;94.69;101364.59;5061179;28;45463;-78
2023/12/26 03:49:38;;;;;;;;;2.33;1.33;;;;;12.37;96.04;101350.66;5043144;28;47601;-78
2023/12/26 03:52:04;;;;;;;;;2.00;2.00;;;;;12.45;95.32;101364.47;5061485;28;45380;-79
2023/12/26 03:54:29;;;;;;;;;3.67;1.67;;;;;12.11;94.51;101320.94;5061466;28;45281;-79
2023/12/26 03:56:55;;;;;;;;;3.33;1.00;;;;;12.36;95.35;101351.63;5061375;28;45289;-79
2023/12/26 03:59:20;;;;;;;;;3.00;1.00;;;;;12.45;96.37;101375.06;5042520;28;45373;-80
2023/12/26 04:01:46;;;;;;;;;2.00;1.00;;;;;12.46;95.69;101391.84;5060945;28;45242;-79
2023/12/26 04:04:20;;;;;;;;;1.00;1.00;;;;;12.14;96.94;101331.44;5061400;28;45285;-79
2023/12/26 04:06:45;;;;;;;;;4.00;1.00;;;;;12.22;96.22;101342.56;5042743;28;45279;-79
2023/12/26 04:09:12;;;;;;;;;3.33;2.00;;;;;12.07;97.00;101324.69;5042570;28;47012;-79
2023/12/26 04:11:37;;;;;;;;;3.00;1.33;;;;;12.22;97.08;101363.78;5059822;28;45282;-79
2023/12/26 04:14:03;;;;;;;;;1.00;1.00;;;;;12.26;96.55;101371.53;5031561;28;45357;-79
2023/12/26 04:16:28;;;;;;;;;1.00;1.00;;;;;12.11;98.17;101331.56;5040391;28;45451;-79
2023/12/26 04:18:53;;;;;;;;;3.00;1.00;;;;;12.49;96.63;101397.88;5023268;28;46439;-79
2023/12/26 04:21:19;;;;;;;;;1.33;1.33;;;;;12.49;97.27;101389.91;5016776;28;45412;-79
2023/12/26 04:23:44;;;;;;;;;1.00;1.00;;;;;12.17;98.11;101336.63;5040599;28;45494;-79
2023/12/26 04:26:09;;;;;;;;;0.67;0.33;;;;;12.29;97.33;101360.78;5041062;28;45964;-79
2023/12/26 04:28:34;;;;;;;;;3.33;1.33;;;;;12.13;98.13;101332.38;5040787;28;45309;-79
2023/12/26 04:31:03;;;;;;;;;0.67;0.67;;;;;12.50;98.74;101402.22;5022346;28;45371;-78
2023/12/26 04:33:29;;;;;;;;;0.00;0.00;;;;;11.86;98.15;101324.72;5040380;28;45297;-78
2023/12/26 04:35:54;;;;;;;;;1.67;1.00;;;;;12.42;99.03;101403.53;5039595;28;45345;-78
2023/12/26 04:38:19;;;;;;;;;1.67;1.33;;;;;12.22;98.40;101361.13;5039926;28;45307;-79
2023/12/26 04:40:45;;;;;;;;;2.00;1.00;;;;;12.06;98.90;101336.22;5054239;28;45380;-78
2023/12/26 04:43:10;;;;;;;;;5.33;0.67;;;;;12.50;98.25;101420.81;5060592;28;45286;-78
2023/12/26 04:45:37;;;;;;;;;2.00;1.00;;;;;12.51;98.73;101425.19;5060104;28;48141;-78
2023/12/26 04:48:05;;;;;;;;;2.00;1.33;;;;;12.15;99.47;101386.19;5019809;28;46121;-79
2023/12/26 04:50:31;;;;;;;;;4.00;1.00;;;;;12.24;99.06;101386.63;5039894;28;45416;-79
2023/12/26 04:52:56;;;;;;;;;1.00;1.00;;;;;11.92;99.05;101326.22;5022073;28;45429;-79
2023/12/26 04:55:21;;;;;;;;;1.00;1.00;;;;;11.88;99.48;101316.69;5020708;28;45569;-78
2023/12/26 04:57:47;;;;;;;;;2.00;2.00;;;;;12.14;100.00;101368.56;5056882;28;45458;-79
2023/12/26 05:00:13;;;;;;;;;2.00;1.00;;;;;12.20;100.00;101376.25;5060364;28;45463;-79
2023/12/26 05:02:38;;;;;;;;;2.00;1.00;;;;;12.26;99.99;101394.53;5045127;28;45427;-79
2023/12/26 05:05:04;;;;;;;;;0.67;0.67;;;;;12.51;100.00;101416.38;5033013;28;45401;-79
2023/12/26 05:07:29;;;;;;;;;2.00;1.00;;;;;12.50;100.00;101434.06;5060222;28;45242;-79
2023/12/26 05:09:55;;;;;;;;;2.33;1.67;;;;;12.32;100.00;101396.91;5055593;28;45422;-79
2023/12/26 05:12:20;;;;;;;;;2.00;1.00;;;;;12.39;100.00;101423.09;5038795;28;45320;-79
2023/12/26 05:14:45;;;;;;;;;4.00;0.33;;;;;12.39;100.00;101425.75;5012986;28;45536;-78
2023/12/26 05:17:12;;;;;;;;;1.67;1.00;;;;;12.41;100.00;101430.97;5039178;28;45446;-79
2023/12/26 05:19:39;;;;;;;;;2.00;0.00;;;;;12.43;100.00;101435.28;5040969;28;45284;-78
2023/12/26 05:22:04;;;;;;;;;0.00;0.00;;;;;11.92;100.00;101376.59;5042749;28;45458;-79
2023/12/26 05:24:33;;;;;;;;;0.33;0.33;;;;;12.26;100.00;101419.28;5039119;28;45471;-78
2023/12/26 05:26:59;;;;;;;;;5.33;2.00;;;;;12.30;100.00;101427.97;5039679;28;45234;-78
2023/12/26 05:29:24;;;;;;;;;2.00;1.67;;;;;12.37;100.00;101443.50;5021542;28;45315;-79
2023/12/26 05:31:50;;;;;;;;;2.00;2.00;;;;;12.39;100.00;101433.72;5039350;28;45437;-79
2023/12/26 05:34:16;;;;;;;;;1.00;1.00;;;;;12.38;100.00;101445.25;5039873;28;45402;-79
2023/12/26 05:36:42;;;;;;;;;1.67;1.00;;;;;12.42;100.00;101446.84;5039532;28;45400;-79
2023/12/26 05:39:08;;;;;;;;;1.33;1.33;;;;;12.48;100.00;101459.81;5039011;28;45226;-78
2023/12/26 05:41:33;;;;;;;;;2.00;1.00;;;;;12.50;100.00;101473.00;5021439;28;45588;-79
2023/12/26 05:43:58;;;;;;;;;4.00;2.00;;;;;12.49;100.00;101482.78;5040922;28;53499;-78
2023/12/26 05:46:30;;;;;;;;;2.00;1.00;;;;;12.46;100.00;101477.63;5022586;28;45948;-79
2023/12/26 05:48:56;;;;;;;;;3.33;1.67;;;;;12.15;100.00;101449.81;5039361;28;45245;-79
2023/12/26 05:51:22;;;;;;;;;2.67;1.00;;;;;12.26;100.00;101443.13;5022116;28;45339;-79
2023/12/26 05:53:48;;;;;;;;;4.00;2.33;;;;;12.50;100.00;101489.78;5039669;28;45555;-78
2023/12/26 05:56:13;;;;;;;;;3.67;1.67;;;;;12.43;100.00;101479.53;5040561;28;50056;-78
2023/12/26 05:58:40;;;;;;;;;3.00;1.33;;;;;12.19;100.00;101457.59;5021608;28;45435;-78
2023/12/26 06:01:09;;;;;;;;;2.00;0.00;;;;;12.13;100.00;101455.22;5004776;28;45378;-79
2023/12/26 06:03:34;;;;;;;;;2.00;1.00;;;;;12.40;100.00;101487.63;5038956;28;45307;-79
2023/12/26 06:06:00;;;;;;;;;1.00;1.00;;;;;12.22;100.00;101451.28;5039025;28;45757;-78
2023/12/26 06:08:26;;;;;;;;;2.00;1.00;;;;;12.36;100.00;101483.38;5039048;28;45322;-79
2023/12/26 06:10:52;;;;;;;;;3.00;2.00;;;;;12.44;100.00;101502.47;5039423;28;45285;-79
2023/12/26 06:13:17;;;;;;;;;2.67;1.00;;;;;12.11;100.00;101464.13;5039078;28;45297;-79
2023/12/26 06:15:42;;;;;;;;;1.00;1.00;;;;;12.36;100.00;101486.03;5038641;28;45368;-78
2023/12/26 06:18:08;;;;;;;;;3.67;1.67;;;;;12.42;100.00;101489.28;5038818;28;45271;-78
2023/12/26 06:20:33;;;;;;;;;2.00;2.00;;;;;12.38;100.00;101484.16;5021524;28;45376;-79
2023/12/26 06:22:59;;;;;;;;;0.00;0.00;;;;;12.33;100.00;101464.94;5035685;28;45393;-79
2023/12/26 06:25:24;;;;;;;;;1.33;1.00;;;;;12.48;100.00;101485.50;5038685;28;45590;-79
2023/12/26 06:27:49;;;;;;;;;4.00;1.33;;;;;12.04;100.00;101415.84;5038962;28;45336;-79
2023/12/26 06:30:15;;;;;;;;;3.00;1.00;;;;;12.17;100.00;101438.22;5039020;28;45411;-79
2023/12/26 06:32:40;;;;;;;;;2.00;1.00;;;;;11.87;100.00;101395.34;5040801;28;45450;-79
2023/12/26 06:35:12;;;;;;;;;2.33;2.00;;;;;12.12;100.00;101444.66;5020912;28;46041;-79
2023/12/26 06:37:37;;;;;;;;;2.67;2.00;;;;;12.02;100.00;101428.28;5020675;28;45409;-78
2023/12/26 06:40:04;;;;;;;;;0.33;0.33;;;;;11.76;100.00;101392.28;5031272;28;45508;-79
2023/12/26 06:42:29;;;;;;;;;2.67;1.33;;;;;12.46;100.00;101514.75;5020496;28;45515;-78
2023/12/26 06:44:55;;;;;;;;;4.00;1.00;;;;;12.18;100.00;101478.84;5038887;28;45541;-79
2023/12/26 06:47:20;;;;;;;;;1.00;1.00;;;;;12.46;100.00;101517.41;5040088;28;45459;-78
2023/12/26 06:49:46;;;;;;;;;2.67;1.00;;;;;12.09;100.00;101461.56;5039933;28;45334;-79
2023/12/26 06:52:14;;;;;;;;;4.00;1.33;;;;;11.89;100.00;101435.91;5038423;28;45429;-78
2023/12/26 06:54:39;;;;;;;;;2.00;1.00;;;;;12.30;100.00;101504.88;5038247;28;46640;-78
2023/12/26 06:57:08;;;;;;;;;5.00;0.00;;;;;12.35;100.00;101509.03;5020184;28;45396;-79
2023/12/26 06:59:34;;;;;;;;;2.00;2.00;;;;;12.42;100.00;101517.59;5039603;28;46398;-79
2023/12/26 07:01:59;;;;;;;;;2.00;0.00;;;;;11.95;100.00;101451.53;5040580;28;45647;-79
2023/12/26 07:04:25;;;;;;;;;3.00;1.00;;;;;12.38;100.00;101513.34;5042458;28;45507;-79
2023/12/26 07:06:50;;;;;;;;;3.33;1.00;;;;;12.06;100.00;101458.19;5040224;28;45455;-78
2023/12/26 07:09:15;;;;;;;;;1.67;1.67;;;;;12.38;100.00;101523.97;5020517;28;45343;-78
2023/12/26 07:11:41;;;;;;;;;2.33;2.00;;;;;12.36;100.00;101517.88;5039396;28;45422;-79
2023/12/26 07:14:06;;;;;;;;;1.00;1.00;;;;;12.51;100.00;101560.50;5024877;28;46848;-78
2023/12/26 07:16:33;;;;;;;;;2.67;1.00;;;;;12.20;100.00;101500.88;5020149;28;45561;-79
2023/12/26 07:18:59;;;;;;;;;2.00;2.00;;;;;11.99;100.00;101500.88;5038621;28;45400;-79
2023/12/26 07:21:24;;;;;;;;;2.00;2.00;;;;;12.37;100.00;101557.56;5038210;28;45498;-79
2023/12/26 07:23:49;;;;;;;;;2.00;0.67;;;;;12.29;100.00;101553.53;5030422;28;46234;-79
2023/12/26 07:26:15;;;;;;;;;2.00;1.00;;;;;12.19;100.00;101523.88;5025305;28;45915;-79
2023/12/26 07:28:40;;;;;;;;;5.67;3.00;;;;;12.13;100.00;101528.59;5038728;28;45346;-79
2023/12/26 07:31:06;;;;;;;;;2.00;1.00;;;;;12.17;100.00;101509.81;5038223;28;45606;-78
2023/12/26 07:33:31;;;;;;;;;3.67;1.00;;;;;12.12;100.00;101522.41;5037841;28;45603;-79
2023/12/26 07:35:57;;;;;;;;;1.67;1.00;;;;;12.47;100.00;101590.75;5041222;28;45354;-79
2023/12/26 07:38:26;;;;;;;;;1.33;1.33;;;;;12.29;100.00;101580.06;5041341;28;45385;-78
2023/12/26 07:40:51;;;;;;;;;2.33;1.00;;;;;12.42;100.00;101595.41;5040879;28;45526;-79
2023/12/26 07:43:17;;;;;;;;;7.00;2.00;;;;;11.94;100.00;101536.44;5041487;28;45461;-79
2023/12/26 07:45:43;;;;;;;;;0.67;0.67;;;;;12.02;100.00;101543.16;5026456;28;45992;-79
2023/12/26 07:48:10;;;;;;;;;4.00;1.33;;;;;12.35;100.00;101598.38;5041923;28;45313;-78
2023/12/26 07:50:36;;;;;;;;;2.33;2.00;;;;;12.29;100.00;101602.16;5040071;28;45291;-78
2023/12/26 07:53:01;;;;;;;;;2.00;2.00;;;;;12.38;100.00;101630.06;5043125;28;45669;-79
2023/12/26 07:55:29;;;;;;;;;4.00;2.67;;;;;12.36;100.00;101618.66;5039689;28;45306;-79
2023/12/26 07:57:54;;;;;;;;;4.00;3.00;;;;;12.43;100.00;101633.41;5041431;28;45625;-75
2023/12/26 08:00:20;;;;;;;;;2.67;2.00;;;;;12.42;100.00;101644.94;5046581;28;45380;-79
2023/12/26 08:02:45;;;;;;;;;1.33;1.33;;;;;12.43;100.00;101646.69;5040728;28;45368;-77
2023/12/26 08:05:11;;;;;;;;;5.67;0.33;;;;;12.17;100.00;101607.94;5040148;28;58849;-75
2023/12/26 08:07:36;;;;;;;;;2.00;1.00;;;;;12.43;100.00;101651.97;5029099;28;45538;-75
2023/12/26 08:10:02;;;;;;;;;2.67;2.00;;;;;12.26;100.00;101622.63;5041982;28;45309;-75
2023/12/26 08:12:27;;;;;;;;;4.00;1.00;;;;;12.44;100.00;101653.69;5047394;28;45498;-76
2023/12/26 08:14:52;;;;;;;;;2.67;0.00;;;;;12.32;100.00;101652.41;5040635;28;51051;-76
2023/12/26 08:17:18;;;;;;;;;1.00;1.00;;;;;12.33;100.00;101662.09;5022845;28;45246;-76
2023/12/26 08:19:43;;;;;;;;;5.00;3.33;;;;;12.47;100.00;101685.41;5040896;28;45302;-76
2023/12/26 08:22:08;;;;;;;;;3.67;2.00;;;;;12.32;100.00;101667.47;5022758;28;55378;-76
2023/12/26 08:24:34;;;;;;;;;4.00;2.00;;;;;12.41;100.00;101678.56;5039063;28;51817;-75
2023/12/26 08:26:59;;;;;;;;;2.00;1.00;;;;;12.32;100.00;101664.81;5016589;28;45275;-75
2023/12/26 08:29:24;;;;;;;;;1.00;1.00;;;;;12.39;100.00;101676.91;5021414;28;64419;-76
2023/12/26 08:31:50;;;;;;;;;2.33;2.00;;;;;12.48;100.00;101698.63;5038891;28;58062;-75
2023/12/26 08:34:15;;;;;;;;;3.67;3.00;;;;;12.32;100.00;101672.78;5040168;28;45282;-75
2023/12/26 08:36:40;;;;;;;;;4.00;2.00;;;;;12.50;100.00;101702.06;5039431;28;45338;-77
2023/12/26 08:39:05;;;;;;;;;1.00;1.00;;;;;12.51;100.00;101708.22;5035176;28;45361;-75
2023/12/26 08:41:31;;;;;;;;;2.00;0.00;;;;;11.88;100.00;101595.84;5059960;28;46542;-80
2023/12/26 08:43:56;;;;;;;;;0.33;0.33;;;;;12.12;100.00;101657.66;5022673;28;45303;-80
2023/12/26 08:46:22;;;;;;;;;1.67;1.00;;;;;11.98;100.00;101629.03;5024371;28;45435;-80
2023/12/26 08:48:47;;;;;;;;;3.00;0.33;;;;;12.42;100.00;101685.59;5060557;28;45637;-78
2023/12/26 08:51:13;;;;;;;;;2.00;1.00;;;;;12.40;100.00;101684.78;5060302;28;46200;-74
2023/12/26 08:53:38;;;;;;;;;1.00;1.00;;;;;12.44;100.00;101704.97;5060338;28;45272;-75
2023/12/26 08:56:03;;;;;;;;;1.00;1.00;;;;;12.32;100.00;101694.84;5060648;28;45441;-76
2023/12/26 08:58:31;;;;;;;;;4.67;1.00;;;;;12.40;100.00;101715.78;5060535;28;45452;-75
2023/12/26 09:00:57;;;;;;;;;4.67;2.00;;;;;12.30;100.00;101698.50;5013620;28;46988;-76
2023/12/26 09:03:23;;;;;;;;;1.00;0.00;;;;;12.37;100.00;101722.06;5039459;28;45459;-75
2023/12/26 09:05:48;;;;;;;;;1.33;1.00;;;;;12.41;100.00;101733.41;5041706;28;45321;-76
2023/12/26 09:08:13;;;;;;;;;1.00;1.00;;;;;12.36;100.00;101732.75;5042718;28;53271;-75
2023/12/26 09:10:39;;;;;;;;;2.33;2.00;;;;;12.20;100.00;101710.41;5054364;28;45472;-76
2023/12/26 09:13:04;;;;;;;;;1.00;1.00;;;;;12.44;100.00;101768.63;5022713;28;45609;-75
2023/12/26 09:15:29;;;;;;;;;1.33;1.00;;;;;12.45;100.00;101761.56;5039747;28;49921;-77
2023/12/26 09:17:57;;;;;;;;;3.00;2.00;;;;;12.16;100.00;101724.69;5039388;28;45364;-80
2023/12/26 09:20:23;;;;;;;;;2.00;2.00;;;;;12.24;100.00;101742.03;5039873;28;45428;-79
2023/12/26 09:22:50;;;;;;;;;0.00;0.00;;;;;11.94;100.00;101706.13;5032299;28;46087;-80
2023/12/26 09:25:15;;;;;;;;;0.67;0.33;;;;;12.36;100.00;101753.97;5054788;28;45301;-81
2023/12/26 09:27:42;;;;;;;;;2.67;1.00;;;;;12.06;100.00;101707.41;5059785;28;45478;-76
2023/12/26 09:30:09;;;;;;;;;1.00;1.00;;;;;12.35;100.00;101762.84;5048569;28;45364;-76
2023/12/26 09:32:34;;;;;;;;;2.00;1.00;;;;;12.50;100.00;101791.41;5057091;28;45292;-76
2023/12/26 09:34:59;;;;;;;;;3.00;1.00;;;;;12.42;100.00;101769.63;5039548;28;45362;-76
2023/12/26 09:37:25;;;;;;;;;2.00;1.00;;;;;12.52;100.00;101797.53;5039699;28;45285;-76
2023/12/26 09:39:50;;;;;;;;;0.00;0.00;;;;;12.43;100.00;101781.97;5039333;28;50654;-77
2023/12/26 09:42:24;;;;;;;;;2.00;0.67;;;;;12.52;100.00;101805.50;5039491;28;45258;-76
2023/12/26 09:44:49;;;;;;;;;2.00;1.00;;;;;12.43;100.00;101797.91;5039755;28;45293;-77
2023/12/26 09:47:16;;;;;;;;;2.00;1.00;;;;;12.20;100.00;101782.00;5020902;28;45343;-78
2023/12/26 09:49:43;;;;;;;;;1.67;1.00;;;;;12.35;100.00;101798.19;5017896;28;47172;-78
2023/12/26 09:52:10;;;;;;;;;2.00;1.00;;;;;12.20;100.00;101756.34;5038979;28;45415;-78
2023/12/26 09:54:38;;;;;;;;;5.33;2.00;;;;;12.52;100.00;101821.41;5039162;28;45358;-79
2023/12/26 09:57:06;;;;;;;;;2.67;2.00;;;;;12.30;100.00;101776.25;5038370;28;45447;-78
2023/12/26 09:59:35;;;;;;;;;2.33;1.00;;;;;12.45;100.00;101811.97;5019164;28;46052;-78
2023/12/26 10:02:01;;;;;;;;;6.67;4.00;;;;;12.39;100.00;101810.41;5051124;28;45610;-79
2023/12/26 10:04:26;;;;;;;;;3.00;2.00;;;;;12.26;100.00;101813.59;5037751;28;45493;-78
2023/12/26 10:06:52;;;;;;;;;0.33;0.00;;;;;12.58;100.00;101846.84;5039822;28;45507;-75
2023/12/26 10:09:19;;;;;;;;;1.67;1.67;;;;;12.39;100.00;101814.84;5041563;28;46205;-75
2023/12/26 10:11:44;;;;;;;;;4.00;2.00;;;;;12.50;100.00;101829.41;5023174;28;45668;-76
2023/12/26 10:14:10;;;;;;;;;2.33;2.00;;;;;12.46;100.00;101829.63;5048013;28;45316;-75
2023/12/26 10:16:36;;;;;;;;;3.33;2.33;;;;;12.64;100.00;101858.09;5055732;28;45241;-76
2023/12/26 10:19:01;;;;;;;;;2.67;1.67;;;;;12.63;100.00;101861.66;5059051;28;45250;-77
2023/12/26 10:21:27;;;;;;;;;2.00;2.00;;;;;12.52;100.00;101835.56;5058881;28;52835;-76
2023/12/26 10:23:53;;;;;;;;;1.33;1.33;;;;;12.60;100.00;101837.06;5040955;28;45266;-76
2023/12/26 10:26:19;;;;;;;;;4.67;1.00;;;;;12.64;100.00;101831.53;5059068;28;45594;-77
2023/12/26 10:28:46;;;;;;;;;2.67;2.67;;;;;12.64;100.00;101844.81;5040302;28;61129;-78
2023/12/26 10:31:18;;;;;;;;;3.33;1.00;;;;;12.71;100.00;101872.84;5040592;28;45416;-75
2023/12/26 10:33:44;;;;;;;;;1.00;1.00;;;;;12.69;100.00;101868.53;5059153;28;45301;-77
2023/12/26 10:36:12;;;;;;;;;2.00;1.67;;;;;12.53;100.00;101847.03;5040990;28;45425;-77
2023/12/26 10:38:44;;;;;;;;;1.67;1.67;;;;;12.52;100.00;101848.81;5019440;28;45438;-77
2023/12/26 10:41:23;;;;;;;;;1.00;1.00;;;;;12.70;100.00;101859.63;5000992;28;45409;-77
2023/12/26 10:43:49;;;;;;;;;2.67;2.00;;;;;12.72;100.00;101857.78;5019104;28;45373;-77
2023/12/26 10:46:17;;;;;;;;;1.00;1.00;;;;;12.67;100.00;101851.78;5018606;28;45309;-76
2023/12/26 10:48:43;;;;;;;;;1.67;1.67;;;;;12.74;100.00;101861.25;5000880;28;46577;-76
2023/12/26 10:51:09;;;;;;;;;0.33;0.33;;;;;12.61;100.00;101839.63;5018789;28;45309;-75
2023/12/26 10:53:45;;;;;;;;;2.67;1.67;;;;;12.74;100.00;101862.13;5000684;28;45412;-75
2023/12/26 10:56:14;;;;;;;;;3.00;1.00;;;;;12.64;100.00;101847.47;5018749;28;45467;-75
2023/12/26 10:58:40;;;;;;;;;3.33;1.00;;;;;12.73;100.00;101860.38;5018772;28;45328;-75
2023/12/26 11:01:16;;;;;;;;;0.00;0.00;;;;;12.70;100.00;101864.94;5000627;28;45341;-75
2023/12/26 13:51:56;;;;;;;;;2.00;2.00;;;;;12.68;100.00;101838.47;5039274;28;45379;-77
2023/12/26 13:54:21;;;;;;;;;2.00;2.00;;;;;12.73;100.00;101846.25;5039440;28;45512;-75
2023/12/26 13:56:47;;;;;;;;;3.00;3.00;;;;;12.69;100.00;101834.91;5039576;28;45388;-82
2023/12/26 13:59:12;;;;;;;;;2.00;2.00;;;;;12.58;100.00;101801.72;5039501;28;45542;-81
2023/12/26 14:01:37;;;;;;;;;4.00;3.00;;;;;12.73;100.00;101812.59;5039292;28;45399;-78
2023/12/26 14:04:03;;;;;;;;;3.00;2.00;;;;;12.76;100.00;101817.78;5039394;28;45447;-77